Time;durP1;ratioP1;P1;durP2;ratioP2;P2;SDS_P1;SDS_P2;PMS_P1;PMS_P2;Temp;Humidity;BMP_temperature;BMP_pressure;BME280_temperature;BME280_humidity;BME280_pressure;Samples;Min_cycle;Max_cycle;Signal;HPM_P1;HPM_P2
2023/10/14 00:01:31;;;;;;;0.30;0.30;;;;;;;32.52;29.04;98993.78;7397702;19;20036;-83
2023/10/14 00:03:57;;;;;;;0.10;0.10;;;;;;;32.90;28.95;98998.41;7395304;19;20358;-83
2023/10/14 00:06:24;;;;;;;0.20;0.20;;;;;;;33.17;28.60;99009.00;7394196;19;20034;-84
2023/10/14 00:11:17;;;;;;;0.45;0.45;;;;;;;33.60;28.23;99017.38;7397270;19;20028;-84
2023/10/14 00:13:49;;;;;;;7.68;0.55;;;;;;;33.82;27.85;99018.31;7399337;19;20019;-84
2023/10/14 00:18:55;;;;;;;0.38;0.38;;;;;;;32.86;28.65;99029.94;7397854;19;20527;-84
2023/10/14 00:21:25;;;;;;;0.30;0.30;;;;;;;32.72;28.82;99032.19;7393555;19;20353;-83
2023/10/14 00:23:56;;;;;;;0.52;0.43;;;;;;;32.29;29.23;99037.34;7394754;19;20010;-84
2023/10/14 00:26:27;;;;;;;0.20;0.20;;;;;;;31.73;29.99;99048.94;7393030;19;20653;-83
2023/10/14 00:28:54;;;;;;;0.20;0.20;;;;;;;31.81;30.00;99049.34;7397361;19;20035;-84
2023/10/14 00:31:23;;;;;;;1.00;0.85;;;;;;;32.52;29.41;99048.56;7394673;19;20030;-84
2023/10/14 00:33:52;;;;;;;0.10;0.10;;;;;;;31.79;29.43;99049.25;7393938;19;20021;-84
2023/10/14 00:36:23;;;;;;;0.10;0.10;;;;;;;32.26;29.69;99055.91;7391344;19;20019;-84
2023/10/14 00:38:58;;;;;;;0.10;0.10;;;;;;;32.19;29.63;99051.25;7396989;19;20018;-84
2023/10/14 00:41:28;;;;;;;0.10;0.10;;;;;;;31.75;29.63;99054.78;7393752;19;20023;-84
2023/10/14 00:43:56;;;;;;;0.20;0.20;;;;;;;31.57;29.78;99062.50;7393027;19;20070;-84
2023/10/14 00:46:23;;;;;;;0.20;0.20;;;;;;;31.54;29.92;99072.41;7392295;19;20014;-84
2023/10/14 00:48:58;;;;;;;0.10;0.10;;;;;;;31.56;29.58;99075.41;7395550;19;20018;-84
2023/10/14 00:51:27;;;;;;;0.22;0.22;;;;;;;31.63;29.46;99075.06;7392175;19;20018;-84
2023/10/14 00:54:02;;;;;;;0.20;0.20;;;;;;;31.67;30.17;99086.03;7392162;19;20010;-83
2023/10/14 00:56:31;;;;;;;0.15;0.15;;;;;;;31.66;29.94;99082.44;7389208;19;20021;-84
2023/10/14 00:58:59;;;;;;;0.13;0.13;;;;;;;31.36;30.08;99090.19;7395361;19;20022;-84
2023/10/14 01:01:48;;;;;;;0.30;0.30;;;;;;;31.27;29.86;99099.78;7394970;19;20022;-84
2023/10/14 01:04:22;;;;;;;0.20;0.20;;;;;;;31.65;29.68;99097.47;7392721;19;20037;-84
2023/10/14 01:09:33;;;;;;;0.20;0.20;;;;;;;33.94;27.88;99093.19;7396338;19;20018;-84
2023/10/14 01:12:14;;;;;;;0.20;0.20;;;;;;;33.76;27.73;99101.09;7392740;19;20355;-84
2023/10/14 01:14:41;;;;;;;0.22;0.22;;;;;;;32.99;28.61;99100.50;7391219;19;20472;-84
2023/10/14 01:17:09;;;;;;;0.20;0.20;;;;;;;33.58;27.80;99101.03;7391567;19;20042;-84
2023/10/14 01:19:37;;;;;;;0.20;0.20;;;;;;;33.46;27.79;99106.97;7391466;19;20073;-84
2023/10/14 01:22:03;;;;;;;0.10;0.10;;;;;;;33.25;28.02;99109.63;7391462;19;20015;-84
2023/10/14 01:24:38;;;;;;;0.40;0.40;;;;;;;32.79;28.47;99108.22;7390878;19;20035;-84
2023/10/14 01:27:07;;;;;;;0.20;0.20;;;;;;;32.72;28.22;99112.97;7393229;19;20019;-84
2023/10/14 01:29:39;;;;;;;0.20;0.20;;;;;;;31.30;29.48;99121.56;7395576;19;20129;-84
2023/10/14 01:32:24;;;;;;;0.20;0.20;;;;;;;31.67;28.96;99135.00;7390616;19;20386;-84
2023/10/14 01:34:57;;;;;;;0.70;0.30;;;;;;;31.80;29.19;99134.22;7391539;19;20010;-84
2023/10/14 01:37:26;;;;;;;0.25;0.25;;;;;;;31.99;28.73;99139.56;7391323;19;20030;-84
2023/10/14 01:40:08;;;;;;;0.20;0.20;;;;;;;31.81;28.60;99138.63;7392898;19;20014;-84
2023/10/14 01:42:34;;;;;;;0.45;0.45;;;;;;;32.13;29.08;99146.81;7392540;19;20345;-84
2023/10/14 01:45:01;;;;;;;0.20;0.20;;;;;;;31.85;28.96;99147.47;7391608;19;20014;-83
2023/10/14 01:47:29;;;;;;;0.20;0.20;;;;;;;30.93;29.52;99157.63;7391582;19;20593;-84
2023/10/14 01:49:56;;;;;;;1.70;0.43;;;;;;;30.93;29.64;99160.50;7392158;19;20030;-84
2023/10/14 01:52:22;;;;;;;0.20;0.20;;;;;;;30.57;30.07;99153.44;7391597;19;20010;-84
2023/10/14 01:54:50;;;;;;;0.20;0.20;;;;;;;30.71;29.56;99154.97;7390030;19;20435;-84
2023/10/14 01:57:17;;;;;;;0.73;0.73;;;;;;;31.25;29.37;99160.13;7391638;19;20487;-83
2023/10/14 01:59:49;;;;;;;1.02;1.00;;;;;;;30.96;29.62;99159.97;7390501;19;20038;-84
2023/10/14 02:02:20;;;;;;;0.25;0.25;;;;;;;31.46;29.35;99162.00;7393872;19;20011;-84
2023/10/14 02:04:47;;;;;;;0.30;0.30;;;;;;;31.70;29.02;99162.53;7390268;19;20015;-84
2023/10/14 02:07:18;;;;;;;0.20;0.20;;;;;;;32.25;28.53;99163.22;7391174;19;20082;-84
2023/10/14 02:09:44;;;;;;;0.40;0.40;;;;;;;32.33;28.33;99170.13;7390304;19;20011;-84
2023/10/14 02:12:11;;;;;;;0.20;0.20;;;;;;;32.52;28.52;99169.66;7389675;19;20022;-84
2023/10/14 02:14:57;;;;;;;0.20;0.20;;;;;;;32.73;28.34;99172.13;7390952;19;20029;-84
2023/10/14 02:17:24;;;;;;;0.20;0.20;;;;;;;32.80;28.33;99173.91;7389697;19;20014;-84
2023/10/14 02:19:54;;;;;;;0.30;0.30;;;;;;;32.76;28.64;99184.50;7389895;19;20390;-84
2023/10/14 02:22:23;;;;;;;2.40;0.85;;;;;;;32.59;28.68;99194.53;7390169;19;20010;-84
2023/10/14 02:24:49;;;;;;;0.10;0.10;;;;;;;33.33;28.54;99185.06;7390083;19;20018;-85
2023/10/14 02:27:15;;;;;;;0.10;0.10;;;;;;;33.68;28.31;99191.00;7389599;19;20896;-84
2023/10/14 02:29:45;;;;;;;2.28;1.23;;;;;;;33.42;28.13;99184.03;7391161;19;20035;-84
2023/10/14 02:32:13;;;;;;;0.10;0.10;;;;;;;33.43;28.50;99191.28;7390100;19;20011;-84
2023/10/14 02:34:40;;;;;;;0.43;0.43;;;;;;;33.54;27.94;99199.06;7389125;19;20379;-85
2023/10/14 02:37:07;;;;;;;0.20;0.20;;;;;;;33.37;28.36;99202.56;7388328;19;20011;-84
2023/10/14 02:39:33;;;;;;;0.10;0.10;;;;;;;33.57;28.41;99195.59;7394908;19;20019;-85
2023/10/14 02:42:00;;;;;;;2.05;0.73;;;;;;;32.93;28.86;99212.72;7390735;19;20018;-85
2023/10/14 02:44:28;;;;;;;0.10;0.10;;;;;;;32.20;29.50;99214.13;7391630;19;20394;-87
2023/10/14 02:47:03;;;;;;;0.88;0.85;;;;;;;32.26;29.35;99213.69;7389794;19;20343;-87
2023/10/14 02:49:42;;;;;;;0.10;0.10;;;;;;;32.39;29.21;99219.44;7393096;19;20094;-86
2023/10/14 02:52:12;;;;;;;0.50;0.50;;;;;;;31.73;29.58;99230.38;7390993;19;20018;-87
2023/10/14 02:54:54;;;;;;;0.20;0.20;;;;;;;31.17;30.20;99223.00;7389780;19;20078;-87
2023/10/14 02:59:52;;;;;;;0.95;0.90;;;;;;;31.00;31.08;99228.47;7391121;19;20034;-87
2023/10/14 03:07:30;;;;;;;0.20;0.20;;;;;;;30.87;31.24;99229.91;7391493;19;20135;-87
2023/10/14 03:10:09;;;;;;;0.10;0.10;;;;;;;31.70;30.61;99243.16;7391593;19;20022;-87
2023/10/14 03:12:39;;;;;;;0.15;0.15;;;;;;;31.00;31.05;99249.38;7388244;19;20028;-87
2023/10/14 03:15:19;;;;;;;0.10;0.10;;;;;;;31.81;30.57;99245.19;7388174;19;20025;-87
2023/10/14 03:17:58;;;;;;;0.10;0.10;;;;;;;32.04;30.30;99253.63;7391241;19;20469;-87
2023/10/14 03:22:56;;;;;;;0.10;0.10;;;;;;;32.23;30.14;99253.19;7398614;19;20348;-87
2023/10/14 03:25:23;;;;;;;0.45;0.45;;;;;;;32.55;29.61;99249.09;7397068;19;20023;-87
2023/10/14 03:28:27;;;;;;;0.40;0.40;;;;;;;31.24;31.11;99265.09;7397491;19;20011;-86
2023/10/14 03:30:48;;;;;;;0.47;0.30;;;;;;;31.10;31.10;99292.34;7397139;19;20031;-87
2023/10/14 03:33:20;;;;;;;1.40;1.00;;;;;;;31.35;31.19;99290.19;7397110;19;20010;-88
2023/10/14 03:35:56;;;;;;;0.50;0.50;;;;;;;31.34;30.62;99285.06;7395790;19;20029;-87
2023/10/14 03:41:18;;;;;;;0.10;0.10;;;;;;;30.76;30.79;99293.19;7401471;19;20093;-87
2023/10/14 03:46:32;;;;;;;0.10;0.10;;;;;;;30.85;31.07;99295.94;7393686;19;20369;-87
2023/10/14 03:49:06;;;;;;;0.10;0.10;;;;;;;31.13;31.14;99286.06;7398882;19;20603;-86
2023/10/14 03:51:32;;;;;;;0.20;0.20;;;;;;;32.23;30.00;99282.00;7394831;19;20417;-87
2023/10/14 03:54:07;;;;;;;0.10;0.10;;;;;;;32.56;29.79;99285.19;7395164;19;20035;-86
2023/10/14 03:56:34;;;;;;;0.10;0.10;;;;;;;32.65;29.70;99298.63;7393869;19;20031;-86
2023/10/14 03:59:01;;;;;;;0.10;0.10;;;;;;;32.71;29.21;99304.69;7400775;19;20128;-86
2023/10/14 04:01:34;;;;;;;0.20;0.20;;;;;;;32.65;29.22;99309.41;7397750;19;20015;-86
2023/10/14 04:04:17;;;;;;;0.10;0.10;;;;;;;32.46;29.70;99304.84;7394981;19;20018;-86
2023/10/14 04:09:43;;;;;;;0.22;0.22;;;;;;;32.07;29.84;99302.09;7399462;19;20014;-86
2023/10/14 04:12:22;;;;;;;0.10;0.10;;;;;;;31.58;30.39;99300.09;7394765;19;20294;-86
2023/10/14 04:14:54;;;;;;;0.10;0.10;;;;;;;30.98;30.90;99309.66;7393196;19;20361;-85
2023/10/14 04:17:27;;;;;;;0.10;0.10;;;;;;;31.21;30.92;99321.03;7395452;19;20022;-86
2023/10/14 04:19:54;;;;;;;0.10;0.10;;;;;;;31.31;30.79;99329.50;7395663;19;20078;-87
2023/10/14 04:22:34;;;;;;;0.47;0.47;;;;;;;31.11;31.02;99329.09;7395370;19;20014;-86
2023/10/14 04:25:22;;;;;;;6.40;0.57;;;;;;;31.02;31.21;99335.00;7394428;19;20018;-86
2023/10/14 04:35:25;;;;;;;1.85;0.43;;;;;;;29.87;31.95;99371.88;7396621;19;20427;-88
2023/10/14 04:37:53;;;;;;;0.10;0.10;;;;;;;30.49;31.64;99374.28;7394665;19;20334;-88
2023/10/14 04:43:01;;;;;;;0.10;0.10;;;;;;;31.12;30.41;99370.16;7395664;19;20015;-88
2023/10/14 04:45:31;;;;;;;0.15;0.15;;;;;;;30.51;31.13;99377.28;7392655;19;20035;-87
2023/10/14 04:47:58;;;;;;;0.28;0.28;;;;;;;30.81;30.95;99375.47;7394543;19;20571;-87
2023/10/14 04:50:24;;;;;;;0.17;0.17;;;;;;;31.41;30.81;99379.78;7391744;19;20014;-87
2023/10/14 04:52:50;;;;;;;1.63;1.15;;;;;;;30.81;30.83;99387.72;7393595;19;20021;-87
2023/10/14 04:58:11;;;;;;;0.10;0.10;;;;;;;30.66;31.31;99385.38;7394331;19;20018;-86
2023/10/14 05:00:42;;;;;;;0.10;0.10;;;;;;;30.79;31.58;99386.84;7394553;19;20086;-86
2023/10/14 05:03:13;;;;;;;0.30;0.30;;;;;;;30.84;31.43;99394.34;7395326;19;20022;-86
2023/10/14 05:05:45;;;;;;;0.10;0.10;;;;;;;30.46;31.97;99399.28;7393494;19;20029;-87
2023/10/14 05:08:15;;;;;;;0.22;0.22;;;;;;;30.68;31.44;99388.38;7394057;19;20021;-88
2023/10/14 05:10:44;;;;;;;0.20;0.20;;;;;;;30.67;31.26;99407.00;7394731;19;20374;-88
2023/10/14 05:13:10;;;;;;;0.10;0.10;;;;;;;30.45;31.79;99408.53;7393490;19;20014;-88
2023/10/14 05:15:43;;;;;;;0.10;0.10;;;;;;;30.86;31.46;99424.00;7392564;19;20011;-88
2023/10/14 05:18:16;;;;;;;0.75;0.20;;;;;;;31.56;31.18;99429.50;7394513;19;20025;-88
2023/10/14 05:23:24;;;;;;;0.10;0.10;;;;;;;31.57;30.76;99413.75;7394382;19;20018;-88
2023/10/14 05:25:56;;;;;;;0.10;0.10;;;;;;;31.35;30.77;99411.06;7390916;19;20035;-88
2023/10/14 05:28:29;;;;;;;0.10;0.10;;;;;;;31.63;30.59;99411.22;7394000;19;20070;-87
2023/10/14 05:31:00;;;;;;;3.10;0.80;;;;;;;31.31;30.57;99412.97;7393273;19;20492;-87
2023/10/14 05:33:27;;;;;;;;;;;;;;;32.26;29.58;99421.97;7394621;19;20365;-87
2023/10/14 05:35:57;;;;;;;0.22;0.22;;;;;;;32.05;30.23;99417.22;7391055;19;19922;-87
2023/10/14 05:38:23;;;;;;;0.10;0.10;;;;;;;31.87;30.31;99430.59;7393122;19;20026;-86
2023/10/14 05:40:55;;;;;;;0.20;0.20;;;;;;;31.65;30.26;99426.47;7395244;19;20018;-87
2023/10/14 05:43:25;;;;;;;0.28;0.28;;;;;;;32.24;30.10;99432.63;7390560;19;20018;-88
2023/10/14 05:45:52;;;;;;;0.10;0.10;;;;;;;32.56;29.52;99423.59;7391994;19;20043;-87
2023/10/14 05:48:26;;;;;;;0.17;0.17;;;;;;;32.77;29.37;99429.03;7393505;19;20015;-87
2023/10/14 05:50:54;;;;;;;0.10;0.10;;;;;;;33.03;29.46;99431.84;7391923;19;20022;-87
2023/10/14 05:53:20;;;;;;;0.90;0.20;;;;;;;33.09;28.78;99435.78;7392664;19;20086;-87
2023/10/14 05:55:56;;;;;;;0.10;0.10;;;;;;;33.09;28.82;99455.22;7390987;19;20089;-87
2023/10/14 05:58:27;;;;;;;0.10;0.10;;;;;;;32.72;29.13;99459.09;7393411;19;20049;-86
2023/10/14 06:00:55;;;;;;;0.20;0.20;;;;;;;32.31;29.63;99466.91;7393524;19;20326;-86
2023/10/14 06:03:21;;;;;;;0.20;0.20;;;;;;;32.25;29.80;99475.22;7392999;19;20019;-86
2023/10/14 06:05:47;;;;;;;0.15;0.15;;;;;;;32.38;29.44;99471.59;7391747;19;20373;-87
2023/10/14 06:08:20;;;;;;;0.20;0.20;;;;;;;32.60;29.38;99472.84;7392075;19;20014;-86
2023/10/14 06:10:46;;;;;;;0.55;0.50;;;;;;;32.47;29.41;99467.03;7394863;19;20018;-86
2023/10/14 06:13:14;;;;;;;0.17;0.17;;;;;;;32.53;29.94;99473.19;7390951;19;20010;-86
2023/10/14 06:15:41;;;;;;;0.10;0.10;;;;;;;32.61;29.59;99488.78;7391139;19;20043;-85
2023/10/14 06:18:08;;;;;;;3.00;0.85;;;;;;;32.64;29.56;99496.13;7390923;19;20047;-85
2023/10/14 06:20:35;;;;;;;0.10;0.10;;;;;;;32.70;29.48;99498.59;7390509;19;20487;-86
2023/10/14 06:23:01;;;;;;;0.10;0.10;;;;;;;32.75;29.49;99486.63;7392197;19;20023;-87
2023/10/14 06:25:30;;;;;;;0.10;0.10;;;;;;;32.64;29.55;99492.50;7389068;19;20078;-87
2023/10/14 06:27:57;;;;;;;2.17;0.75;;;;;;;33.02;28.91;99497.44;7389791;19;20015;-86
2023/10/14 06:30:24;;;;;;;0.10;0.10;;;;;;;32.54;29.17;99495.59;7390270;19;20019;-85
2023/10/14 06:33:07;;;;;;;0.20;0.20;;;;;;;32.26;29.14;99502.66;7389823;19;20342;-85
2023/10/14 06:35:34;;;;;;;0.10;0.10;;;;;;;31.95;29.45;99511.00;7388931;19;20022;-85
2023/10/14 06:38:03;;;;;;;0.10;0.10;;;;;;;32.05;29.36;99518.06;7389890;19;20006;-86
2023/10/14 06:40:35;;;;;;;0.13;0.13;;;;;;;32.09;29.04;99521.19;7391224;19;20025;-86
2023/10/14 06:43:07;;;;;;;0.20;0.20;;;;;;;31.98;28.61;99527.00;7392029;19;20015;-85
2023/10/14 06:45:34;;;;;;;0.20;0.20;;;;;;;32.17;28.65;99526.66;7391323;19;20074;-86
2023/10/14 06:48:09;;;;;;;2.28;0.80;;;;;;;31.72;29.14;99532.00;7390665;19;20010;-86
2023/10/14 06:50:42;;;;;;;0.30;0.30;;;;;;;31.26;29.19;99535.72;7392421;19;20021;-85
2023/10/14 06:53:08;;;;;;;0.20;0.20;;;;;;;31.58;29.47;99545.56;7391047;19;20013;-86
2023/10/14 06:55:39;;;;;;;0.20;0.20;;;;;;;32.40;28.71;99549.56;7394537;19;20018;-86
2023/10/14 06:58:18;;;;;;;0.75;0.75;;;;;;;32.38;28.91;99574.66;7399271;19;20014;-85
2023/10/14 07:00:45;;;;;;;0.20;0.20;;;;;;;32.46;28.89;99575.13;7400886;19;20030;-86
2023/10/14 07:03:14;;;;;;;0.10;0.10;;;;;;;32.64;28.90;99585.53;7398597;19;20021;-85
2023/10/14 07:05:48;;;;;;;20.95;1.13;;;;;;;32.62;29.35;99591.19;7397840;19;20034;-86
2023/10/14 07:08:16;;;;;;;0.20;0.20;;;;;;;31.98;29.76;99601.94;7398560;19;20022;-86
2023/10/14 07:10:42;;;;;;;0.20;0.20;;;;;;;32.07;29.62;99609.66;7395837;19;20378;-88
2023/10/14 07:13:08;;;;;;;0.22;0.22;;;;;;;32.05;29.35;99603.78;7400631;19;20110;-88
2023/10/14 07:15:38;;;;;;;0.22;0.22;;;;;;;32.18;29.50;99620.41;7395337;19;20022;-87
2023/10/14 07:18:05;;;;;;;0.10;0.10;;;;;;;32.12;29.93;99617.13;7399849;19;20111;-87
2023/10/14 07:20:31;;;;;;;0.10;0.10;;;;;;;32.04;29.89;99616.69;7396856;19;20059;-87
2023/10/14 07:23:00;;;;;;;0.20;0.20;;;;;;;32.03;29.89;99621.69;7400663;19;20011;-86
2023/10/14 07:25:31;;;;;;;1.95;0.30;;;;;;;32.13;29.77;99633.81;7392876;19;20441;-80
2023/10/14 07:27:59;;;;;;;0.20;0.20;;;;;;;32.40;29.87;99629.56;7395131;19;20508;-80
2023/10/14 07:30:27;;;;;;;0.30;0.30;;;;;;;32.41;29.97;99628.91;7395847;19;20086;-81
2023/10/14 07:32:55;;;;;;;0.20;0.20;;;;;;;32.49;29.85;99632.28;7391470;19;20006;-80
2023/10/14 07:35:22;;;;;;;0.30;0.25;;;;;;;32.38;29.66;99638.81;7390638;19;20002;-80
2023/10/14 07:37:50;;;;;;;0.40;0.40;;;;;;;32.40;29.66;99656.25;7394594;19;20015;-80
2023/10/14 07:40:31;;;;;;;3.40;0.30;;;;;;;32.67;29.13;99647.72;7397314;19;20492;-80
2023/10/14 07:43:05;;;;;;;0.20;0.20;;;;;;;32.16;30.26;99670.00;7391797;19;20362;-80
2023/10/14 07:45:36;;;;;;;0.32;0.32;;;;;;;31.01;30.99;99681.63;7392776;19;20020;-80
2023/10/14 07:48:10;;;;;;;0.10;0.10;;;;;;;30.62;31.22;99693.50;7395062;19;20018;-80
2023/10/14 07:50:36;;;;;;;0.10;0.10;;;;;;;31.37;30.98;99696.16;7393867;19;20006;-80
2023/10/14 07:53:07;;;;;;;0.28;0.20;;;;;;;31.98;30.66;99694.13;7396670;19;20465;-80
2023/10/14 07:55:37;;;;;;;0.45;0.38;;;;;;;32.06;30.61;99703.25;7395886;19;20026;-80
2023/10/14 07:58:08;;;;;;;2.23;0.63;;;;;;;32.46;30.37;99701.97;7397373;19;20026;-80
2023/10/14 08:00:41;;;;;;;0.60;0.30;;;;;;;32.52;30.37;99697.34;7399787;19;20010;-80
2023/10/14 08:03:14;;;;;;;0.28;0.28;;;;;;;31.60;31.10;99695.41;7398518;19;20542;-80
2023/10/14 08:05:41;;;;;;;1.17;0.75;;;;;;;31.00;31.58;99698.13;7388642;19;20015;-80
2023/10/14 08:08:09;;;;;;;1.40;0.57;;;;;;;30.70;31.63;99696.16;7391436;19;20023;-80
2023/10/14 08:10:37;;;;;;;0.38;0.38;;;;;;;28.40;33.59;99700.16;7398570;19;20019;-80
2023/10/14 08:13:08;;;;;;;0.10;0.10;;;;;;;27.23;35.12;99706.81;7394188;19;20017;-80
2023/10/14 08:15:36;;;;;;;0.10;0.10;;;;;;;26.99;35.36;99709.28;7394126;19;20403;-80
2023/10/14 08:18:04;;;;;;;0.10;0.10;;;;;;;26.66;35.44;99719.41;7395713;19;20043;-81
2023/10/14 08:20:31;;;;;;;0.20;0.20;;;;;;;25.64;37.00;99725.09;7393329;19;20036;-80
2023/10/14 08:22:58;;;;;;;0.10;0.10;;;;;;;26.10;36.63;99720.47;7392860;19;20026;-80
2023/10/14 08:25:25;;;;;;;0.30;0.30;;;;;;;25.93;36.68;99723.28;7391503;19;20527;-80
2023/10/14 08:27:53;;;;;;;0.10;0.10;;;;;;;26.03;36.97;99727.00;7395103;19;20026;-80
2023/10/14 08:30:24;;;;;;;0.40;0.40;;;;;;;27.94;34.93;99722.41;7394160;19;20014;-80
2023/10/14 08:32:52;;;;;;;0.20;0.20;;;;;;;28.28;34.28;99732.91;7392554;19;20018;-80
2023/10/14 08:35:19;;;;;;;0.30;0.30;;;;;;;26.63;36.37;99734.91;7391491;19;20046;-80
2023/10/14 08:37:49;;;;;;;0.10;0.10;;;;;;;25.78;37.43;99737.72;7393070;19;20014;-80
2023/10/14 08:40:25;;;;;;;0.20;0.20;;;;;;;26.75;36.43;99741.63;7396223;19;20025;-80
2023/10/14 08:43:05;;;;;;;6.95;0.65;;;;;;;26.09;37.50;99747.53;7394933;19;20030;-80
2023/10/14 08:45:38;;;;;;;0.45;0.45;;;;;;;28.37;34.85;99741.47;7390604;19;20074;-80
2023/10/14 08:48:08;;;;;;;0.38;0.38;;;;;;;29.30;33.95;99742.59;7391996;19;20879;-80
2023/10/14 08:50:35;;;;;;;0.20;0.20;;;;;;;29.15;33.71;99748.66;7393612;19;20021;-80
2023/10/14 08:53:05;;;;;;;0.10;0.10;;;;;;;29.65;33.67;99748.63;7394205;19;20011;-80
2023/10/14 08:55:33;;;;;;;0.10;0.10;;;;;;;29.73;33.33;99758.56;7395979;19;20022;-80
2023/10/14 08:58:07;;;;;;;1.27;0.55;;;;;;;29.40;33.43;99762.63;7392912;19;20014;-80
2023/10/14 09:00:38;;;;;;;0.10;0.10;;;;;;;29.09;33.90;99774.00;7392895;19;20011;-80
2023/10/14 09:03:06;;;;;;;0.17;0.17;;;;;;;29.12;34.09;99784.28;7392061;19;20346;-80
2023/10/14 09:05:33;;;;;;;0.52;0.52;;;;;;;29.30;33.62;99776.25;7395855;19;20434;-80
2023/10/14 09:08:00;;;;;;;0.30;0.30;;;;;;;29.15;33.98;99777.34;7391681;19;20044;-80
2023/10/14 09:10:26;;;;;;;0.35;0.28;;;;;;;29.50;33.61;99789.91;7394021;19;20019;-80
2023/10/14 09:13:03;;;;;;;1.05;0.32;;;;;;;29.45;33.75;99779.53;7391106;19;20010;-80
2023/10/14 09:15:32;;;;;;;0.20;0.20;;;;;;;29.26;33.94;99793.91;7395169;19;20011;-80
2023/10/14 09:17:59;;;;;;;0.10;0.10;;;;;;;29.11;33.78;99782.75;7391970;19;20113;-80
2023/10/14 09:20:37;;;;;;;0.20;0.20;;;;;;;29.20;34.05;99787.75;7393119;19;20048;-79
2023/10/14 09:23:29;;;;;;;0.73;0.70;;;;;;;30.25;33.02;99792.28;7391943;19;20022;-79
2023/10/14 09:25:57;;;;;;;0.10;0.10;;;;;;;30.37;32.99;99799.63;7390966;19;20011;-82
2023/10/14 09:28:26;;;;;;;0.28;0.28;;;;;;;28.71;34.07;99806.38;7391155;19;20023;-81
2023/10/14 09:30:54;;;;;;;0.40;0.20;;;;;;;28.13;35.11;99819.09;7392459;19;20026;-80
2023/10/14 09:33:31;;;;;;;0.17;0.17;;;;;;;27.87;35.06;99814.94;7391091;19;20032;-80
2023/10/14 09:36:02;;;;;;;0.30;0.30;;;;;;;27.12;36.18;99810.31;7391750;19;20488;-80
2023/10/14 09:38:32;;;;;;;0.10;0.10;;;;;;;27.08;36.58;99815.69;7391107;19;20038;-80
2023/10/14 09:41:02;;;;;;;0.10;0.10;;;;;;;27.17;36.63;99815.00;7394477;19;20460;-80
2023/10/14 09:43:32;;;;;;;0.10;0.10;;;;;;;27.53;35.86;99823.66;7391469;19;20687;-80
2023/10/14 09:46:03;;;;;;;0.10;0.10;;;;;;;27.89;35.80;99817.19;7389376;19;20047;-80
2023/10/14 09:48:30;;;;;;;;;;;;;;;27.79;36.11;99820.00;7391345;19;20039;-81
2023/10/14 09:50:57;;;;;;;0.75;0.55;;;;;;;26.95;36.62;99831.88;7390314;19;19911;-80
2023/10/14 09:53:28;;;;;;;0.43;0.43;;;;;;;26.61;37.35;99826.16;7393278;19;20018;-80
2023/10/14 09:56:07;;;;;;;0.35;0.35;;;;;;;26.57;37.73;99830.78;7390649;19;20022;-80
2023/10/14 09:58:43;;;;;;;1.10;1.00;;;;;;;28.07;36.11;99830.84;7390554;19;20042;-80
2023/10/14 10:01:16;;;;;;;0.85;0.38;;;;;;;27.42;36.32;99844.22;7394166;19;20096;-80
2023/10/14 10:03:48;;;;;;;0.10;0.10;;;;;;;28.42;35.57;99846.44;7392281;19;20206;-80
2023/10/14 10:06:35;;;;;;;0.20;0.20;;;;;;;28.35;35.46;99847.31;7388794;19;20031;-80
2023/10/14 10:09:57;;;;;;;0.10;0.10;;;;;;;28.31;35.46;99846.25;7391248;19;20015;-80
2023/10/14 10:12:27;;;;;;;0.30;0.30;;;;;;;28.44;35.16;99855.19;7388867;19;20014;-79
2023/10/14 10:15:06;;;;;;;0.13;0.13;;;;;;;27.74;36.22;99849.69;7394855;19;20050;-79
2023/10/14 10:17:39;;;;;;;1.08;0.95;;;;;;;26.53;37.89;99865.47;7389769;19;20047;-79
2023/10/14 10:20:19;;;;;;;0.10;0.10;;;;;;;26.63;38.33;99871.28;7391765;19;20010;-79
2023/10/14 10:22:52;;;;;;;0.10;0.00;;;;;;;28.57;36.18;99874.09;7389170;19;20107;-79
2023/10/14 10:25:47;;;;;;;0.15;0.15;;;;;;;29.90;34.94;99872.47;7394232;19;20485;-79
2023/10/14 10:28:28;;;;;;;0.20;0.20;;;;;;;30.82;34.16;99883.13;7391635;19;20044;-80
2023/10/14 10:31:09;;;;;;;1.85;0.88;;;;;;;31.07;33.16;99887.03;7397355;19;20018;-79
2023/10/14 10:33:46;;;;;;;2.50;0.55;;;;;;;31.23;33.37;99898.88;7399890;19;20040;-80
2023/10/14 10:36:13;;;;;;;0.10;0.10;;;;;;;31.53;33.10;99897.22;7394506;19;20015;-80
2023/10/14 10:38:39;;;;;;;0.10;0.10;;;;;;;31.68;32.98;99899.63;7397418;19;20082;-80
2023/10/14 10:41:19;;;;;;;0.20;0.20;;;;;;;31.67;32.69;99906.75;7400934;19;20029;-80
2023/10/14 10:43:46;;;;;;;0.35;0.30;;;;;;;31.88;32.67;99898.06;7396167;19;20035;-80
2023/10/14 10:46:44;;;;;;;0.30;0.28;;;;;;;31.36;33.22;99901.91;7398028;19;20014;-80
2023/10/14 10:49:12;;;;;;;0.10;0.10;;;;;;;30.77;33.79;99898.59;7396159;19;20017;-78
2023/10/14 10:51:50;;;;;;;0.10;0.10;;;;;;;30.70;33.61;99901.06;7394686;19;20051;-79
2023/10/14 10:54:17;;;;;;;0.10;0.10;;;;;;;30.68;33.82;99903.06;7398589;19;20038;-79
2023/10/14 10:56:46;;;;;;;0.10;0.10;;;;;;;30.49;33.49;99903.19;7393082;19;20358;-79
2023/10/14 10:59:14;;;;;;;0.20;0.10;;;;;;;30.56;33.73;99907.97;7398338;19;20430;-79
2023/10/14 11:01:41;;;;;;;2.17;1.17;;;;;;;30.60;33.80;99905.38;7398915;19;20422;-79
2023/10/14 11:04:09;;;;;;;0.20;0.20;;;;;;;30.92;33.66;99907.59;7396046;19;20007;-79
2023/10/14 11:06:36;;;;;;;0.10;0.10;;;;;;;31.09;33.40;99907.31;7393554;19;20130;-79
2023/10/14 11:09:03;;;;;;;0.10;0.10;;;;;;;31.13;33.47;99901.81;7396070;19;20461;-79
2023/10/14 11:11:34;;;;;;;0.40;0.40;;;;;;;31.65;33.04;99903.75;7396962;19;20031;-79
2023/10/14 11:14:00;;;;;;;0.10;0.10;;;;;;;32.07;32.44;99906.47;7398506;19;20022;-81
2023/10/14 11:16:28;;;;;;;0.52;0.52;;;;;;;31.89;33.40;99902.41;7396773;19;20015;-81
2023/10/14 11:18:55;;;;;;;0.40;0.10;;;;;;;31.71;33.15;99901.25;7399890;19;20022;-81
2023/10/14 11:21:22;;;;;;;0.25;0.10;;;;;;;31.75;33.17;99913.06;7396092;19;20034;-81
2023/10/14 11:23:52;;;;;;;0.45;0.30;;;;;;;29.54;35.36;99910.75;7401337;19;20010;-81
2023/10/14 11:26:19;;;;;;;0.55;0.35;;;;;;;29.60;35.57;99911.22;7393578;19;20018;-82
2023/10/14 11:28:46;;;;;;;0.25;0.25;;;;;;;29.10;35.50;99936.16;7395499;19;20018;-83
2023/10/14 11:31:12;;;;;;;0.10;0.10;;;;;;;29.10;35.02;99918.94;7394552;19;20432;-82
2023/10/14 11:33:39;;;;;;;0.10;0.10;;;;;;;27.22;36.85;99936.97;7395273;19;20021;-82
2023/10/14 11:36:06;;;;;;;1.25;0.63;;;;;;;25.84;38.79;99930.16;7399011;19;20022;-82
2023/10/14 11:38:32;;;;;;;0.50;0.40;;;;;;;26.13;38.64;99925.63;7395409;19;20019;-82
2023/10/14 11:40:59;;;;;;;8.98;0.85;;;;;;;25.63;39.28;99926.88;7401346;19;20014;-83
2023/10/14 11:43:25;;;;;;;0.13;0.10;;;;;;;28.58;36.67;99935.03;7397213;19;20031;-82
2023/10/14 11:45:55;;;;;;;0.13;0.05;;;;;;;28.99;36.43;99939.63;7393020;19;20010;-83
2023/10/14 11:48:26;;;;;;;0.93;0.77;;;;;;;28.97;36.37;99950.94;7394734;19;20027;-83
2023/10/14 11:50:59;;;;;;;0.22;0.15;;;;;;;27.87;37.85;99938.03;7395808;19;20054;-82
2023/10/14 11:53:32;;;;;;;0.10;0.10;;;;;;;29.86;34.95;99955.47;7395867;19;20480;-82
2023/10/14 11:56:03;;;;;;;3.00;0.45;;;;;;;29.68;35.04;99983.56;7393369;19;20011;-81
2023/10/14 11:58:31;;;;;;;0.40;0.40;;;;;;;30.13;33.64;99978.94;7396767;19;20019;-82
2023/10/14 12:00:59;;;;;;;0.10;0.10;;;;;;;30.38;32.53;99976.47;7395377;19;20345;-82
2023/10/14 12:03:26;;;;;;;0.43;0.43;;;;;;;30.41;32.30;99978.09;7396069;19;20018;-80
2023/10/14 12:05:59;;;;;;;0.20;0.20;;;;;;;30.32;32.25;99975.28;7392565;19;20486;-82
2023/10/14 12:08:30;;;;;;;0.40;0.40;;;;;;;31.39;31.07;99972.63;7396086;19;20014;-82
2023/10/14 12:11:01;;;;;;;0.10;0.10;;;;;;;30.52;31.95;99974.56;7399401;19;20034;-81
2023/10/14 12:13:30;;;;;;;0.30;0.30;;;;;;;29.82;32.62;99970.25;7394306;19;20018;-80
2023/10/14 12:15:57;;;;;;;0.80;0.65;;;;;;;29.45;33.03;99966.09;7394754;19;20022;-83
2023/10/14 12:18:23;;;;;;;0.50;0.20;;;;;;;29.75;32.83;99965.47;7394006;19;20015;-81
2023/10/14 12:20:50;;;;;;;0.15;0.15;;;;;;;29.89;33.24;99963.59;7393574;19;20014;-80
2023/10/14 12:23:20;;;;;;;0.15;0.15;;;;;;;30.26;33.46;99960.44;7393130;19;20022;-82
2023/10/14 12:25:47;;;;;;;0.30;0.30;;;;;;;30.92;33.33;99961.50;7393915;19;20014;-82
2023/10/14 12:28:26;;;;;;;0.20;0.17;;;;;;;30.45;33.94;99966.88;7393532;19;20506;-81
2023/10/14 12:30:56;;;;;;;2.25;0.68;;;;;;;30.73;34.38;99962.38;7393905;19;20010;-81
2023/10/14 12:33:24;;;;;;;0.50;0.50;;;;;;;31.52;33.83;99959.81;7393392;19;20019;-80